• Join FlightAware (Why Join?)
  • Login
  • US Flag 
10:00AM EDT


 

Airport Tracker/Info


-or-


 

Live Flight TrackerFlight Track Log ✈ VH-OEJ ✈ 10-Apr-2013 ✈ SCEL / SCL - YSSY / SYD

Flight Track Log - Related Links

Times and Time Zones

All times are in EDT time to prevent confusion due to time zone crossing. See the VH-OEJ flight status page for this flight to view local times or setup timezone preferences in your user account.

Time Position Orientation Groundspeed Altitude Reporting Facility
EDT Latitude Longitude Course Direction KTS MPH feet Rate Location/Type
02:07PM -33.5099 -70.8218 194° South  Level FlightAware Approximate
02:08PM -33.6268 -70.8579 194° South  Level FlightAware Approximate
02:09PM -33.7437 -70.8942 194° South  Level FlightAware Approximate
02:10PM -33.8605 -70.9305 194° South  Level FlightAware Approximate
02:11PM -33.9774 -70.9669 194° South  Level FlightAware Approximate
02:12PM -34.0943 -71.0034 195° South  Level FlightAware Approximate
02:13PM -34.2111 -71.0400 195° South  Level FlightAware Approximate
02:14PM -34.3279 -71.0768 195° South  Level FlightAware Approximate
02:15PM -34.4448 -71.1136 195° South  Level FlightAware Approximate
02:16PM -34.5616 -71.1505 195° South  Level FlightAware Approximate
02:17PM -34.6784 -71.1876 195° South  Level FlightAware Approximate
02:18PM -34.7952 -71.2247 195° South  Level FlightAware Approximate
02:19PM -34.9119 -71.2619 195° South  Level FlightAware Approximate
02:20PM -35.0287 -71.2993 195° South  Level FlightAware Approximate
02:21PM -35.1455 -71.3367 195° South  Level FlightAware Approximate
02:22PM -35.2622 -71.3743 195° South  Level FlightAware Approximate
02:23PM -35.3789 -71.4120 195° South  Level FlightAware Approximate
02:24PM -35.4957 -71.4497 195° South  Level FlightAware Approximate
02:25PM -35.6124 -71.4876 195° South  Level FlightAware Approximate
02:26PM -35.7291 -71.5256 195° South  Level FlightAware Approximate
02:27PM -35.8457 -71.5637 195° South  Level FlightAware Approximate
02:28PM -35.9624 -71.6020 195° South  Level FlightAware Approximate
02:29PM -36.0791 -71.6403 195° South  Level FlightAware Approximate
02:30PM -36.1957 -71.6787 195° South  Level FlightAware Approximate
02:31PM -36.3124 -71.7173 195° South  Level FlightAware Approximate
02:32PM -36.4290 -71.7560 195° South  Level FlightAware Approximate
02:33PM -36.5456 -71.7948 195° South  Level FlightAware Approximate
02:34PM -36.6622 -71.8337 195° South  Level FlightAware Approximate
02:35PM -36.7788 -71.8727 195° South  Level FlightAware Approximate
02:36PM -36.8953 -71.9119 195° South  Level FlightAware Approximate
02:37PM -37.0119 -71.9512 195° South  Level FlightAware Approximate
02:38PM -37.1284 -71.9905 195° South  Level FlightAware Approximate
02:39PM -37.2450 -72.0301 195° South  Level FlightAware Approximate
02:40PM -37.3615 -72.0697 195° South  Level FlightAware Approximate
02:41PM -37.4780 -72.1095 195° South  Level FlightAware Approximate
02:42PM -37.5945 -72.1493 195° South  Level FlightAware Approximate
02:43PM -37.7110 -72.1893 195° South  Level FlightAware Approximate
02:44PM -37.8274 -72.2295 195° South  Level FlightAware Approximate
02:45PM -37.9439 -72.2697 195° South  Level FlightAware Approximate
02:46PM -38.0603 -72.3101 195° South  Level FlightAware Approximate
02:47PM -38.1768 -72.3506 195° South  Level FlightAware Approximate
02:48PM -38.2932 -72.3913 195° South  Level FlightAware Approximate
02:49PM -38.4096 -72.4321 195° South  Level FlightAware Approximate
02:50PM -38.5260 -72.4730 195° South  Level FlightAware Approximate
02:51PM -38.6423 -72.5140 195° South  Level FlightAware Approximate
02:52PM -38.7587 -72.5552 195° South  Level FlightAware Approximate
02:53PM -38.8750 -72.5965 195° South  Level FlightAware Approximate
02:54PM -38.9913 -72.6380 195° South  Level FlightAware Approximate
02:55PM -39.1077 -72.6796 196° South  Level FlightAware Approximate
02:56PM -39.2240 -72.7213 196° South  Level FlightAware Approximate
02:57PM -39.3402 -72.7631 196° South  Level FlightAware Approximate
02:58PM -39.4565 -72.8051 196° South  Level FlightAware Approximate
02:59PM -39.5728 -72.8473 196° South  Level FlightAware Approximate
03:00PM -39.6890 -72.8895 196° South  Level FlightAware Approximate
03:01PM -39.8052 -72.9320 196° South  Level FlightAware Approximate
03:02PM -39.9035 -73.0233 202° Southwest  Level Estimated
03:03PM -40.0189 -73.0694 197° South  Level FlightAware Approximate
03:04PM -40.1343 -73.1156 197° South  Level FlightAware Approximate
03:05PM -40.2497 -73.1620 197° South  Level FlightAware Approximate
03:06PM -40.3651 -73.2086 197° South  Level FlightAware Approximate
03:07PM -40.4804 -73.2553 197° South  Level FlightAware Approximate
03:08PM -40.5957 -73.3022 197° South  Level FlightAware Approximate
03:09PM -40.7111 -73.3493 197° South  Level FlightAware Approximate
03:10PM -40.8264 -73.3965 197° South  Level FlightAware Approximate
03:11PM -40.9416 -73.4439 197° South  Level FlightAware Approximate
03:12PM -41.0569 -73.4914 197° South  Level FlightAware Approximate
03:13PM -41.1721 -73.5391 197° South  Level FlightAware Approximate
03:14PM -41.2873 -73.5870 197° South  Level FlightAware Approximate
03:15PM -41.4025 -73.6351 197° South  Level FlightAware Approximate
03:16PM -41.5177 -73.6833 197° South  Level FlightAware Approximate
03:17PM -41.6328 -73.7317 197° South  Level FlightAware Approximate
03:18PM -41.7480 -73.7803 197° South  Level FlightAware Approximate
03:19PM -41.8631 -73.8290 198° South  Level FlightAware Approximate
03:20PM -41.9607 -73.9244 203° Southwest  Level Estimated
03:21PM -42.0746 -73.9782 199° South  Level FlightAware Approximate
03:22PM -42.1884 -74.0322 199° South  Level FlightAware Approximate
03:23PM -42.3023 -74.0864 199° South  Level FlightAware Approximate
03:24PM -42.4161 -74.1408 199° South  Level FlightAware Approximate
03:25PM -42.5299 -74.1954 199° South  Level FlightAware Approximate
03:26PM -42.6437 -74.2503 200° South  Level FlightAware Approximate
03:27PM -42.7574 -74.3053 200° South  Level FlightAware Approximate
03:28PM -42.8711 -74.3605 200° South  Level FlightAware Approximate
03:29PM -42.9848 -74.4158 200° South  Level FlightAware Approximate
03:30PM -43.0985 -74.4715 200° South  Level FlightAware Approximate
03:31PM -43.2121 -74.5273 200° South  Level FlightAware Approximate
03:32PM -43.3257 -74.5833 200° South  Level FlightAware Approximate
03:33PM -43.4393 -74.6395 200° South  Level FlightAware Approximate
03:34PM -43.5529 -74.6960 200° South  Level FlightAware Approximate
03:35PM -43.6664 -74.7527 200° South  Level FlightAware Approximate
03:36PM -43.7799 -74.8095 200° South  Level FlightAware Approximate
03:37PM -43.8933 -74.8666 200° South  Level FlightAware Approximate
03:38PM -44.0068 -74.9239 200° South  Level FlightAware Approximate
03:39PM -44.1202 -74.9815 200° South  Level FlightAware Approximate
03:40PM -44.2336 -75.0392 200° South  Level FlightAware Approximate
03:41PM -44.3469 -75.0972 200° South  Level FlightAware Approximate
03:42PM -44.4603 -75.1554 200° South  Level FlightAware Approximate
03:43PM -44.5735 -75.2138 200° South  Level FlightAware Approximate
03:44PM -44.6868 -75.2725 200° South  Level FlightAware Approximate
03:45PM -44.8000 -75.3313 200° South  Level FlightAware Approximate
03:46PM -44.9132 -75.3904 200° South  Level FlightAware Approximate
03:47PM -45.0264 -75.4498 200° South  Level FlightAware Approximate
03:48PM -45.1395 -75.5094 200° South  Level FlightAware Approximate
03:49PM -45.2527 -75.5692 200° South  Level FlightAware Approximate
03:50PM -45.3657 -75.6292 200° South  Level FlightAware Approximate
03:51PM -45.4788 -75.6896 201° Southwest  Level FlightAware Approximate
03:52PM -45.5918 -75.7501 201° Southwest  Level FlightAware Approximate
03:53PM -45.7048 -75.8109 201° Southwest  Level FlightAware Approximate
03:54PM -45.8177 -75.8719 201° Southwest  Level FlightAware Approximate
03:55PM -45.9306 -75.9332 201° Southwest  Level FlightAware Approximate
03:56PM -46.0265 -76.0388 222° Southwest  Level Estimated
03:57PM -46.1342 -76.1174 207° Southwest  Level FlightAware Approximate
03:58PM -46.2418 -76.1962 207° Southwest  Level FlightAware Approximate
03:59PM -46.3494 -76.2754 207° Southwest  Level FlightAware Approximate
04:00PM -46.4570 -76.3548 207° Southwest  Level FlightAware Approximate
04:01PM -46.5645 -76.4346 207° Southwest  Level FlightAware Approximate
04:02PM -46.6720 -76.5147 207° Southwest  Level FlightAware Approximate
04:03PM -46.7794 -76.5951 207° Southwest  Level FlightAware Approximate
04:04PM -46.8867 -76.6758 207° Southwest  Level FlightAware Approximate
04:05PM -46.9940 -76.7569 207° Southwest  Level FlightAware Approximate
04:06PM -47.1012 -76.8383 207° Southwest  Level FlightAware Approximate
04:07PM -47.2083 -76.9200 207° Southwest  Level FlightAware Approximate
04:08PM -47.3154 -77.0020 207° Southwest  Level FlightAware Approximate
04:09PM -47.4225 -77.0844 207° Southwest  Level FlightAware Approximate
04:10PM -47.5295 -77.1671 208° Southwest  Level FlightAware Approximate
04:11PM -47.6364 -77.2501 208° Southwest  Level FlightAware Approximate
04:12PM -47.7433 -77.3335 208° Southwest  Level FlightAware Approximate
04:13PM -47.8501 -77.4173 208° Southwest  Level FlightAware Approximate
04:14PM -47.9568 -77.5013 208° Southwest  Level FlightAware Approximate
04:15PM -48.0635 -77.5857 208° Southwest  Level FlightAware Approximate
04:16PM -48.1701 -77.6705 208° Southwest  Level FlightAware Approximate
04:17PM -48.2767 -77.7556 208° Southwest  Level FlightAware Approximate
04:18PM -48.3707 -77.8695 220° Southwest  Level Estimated
04:19PM -48.4742 -77.9631 211° Southwest  Level FlightAware Approximate
04:20PM -48.5776 -78.0571 211° Southwest  Level FlightAware Approximate
04:21PM -48.6810 -78.1515 211° Southwest  Level FlightAware Approximate
04:22PM -48.7842 -78.2462 211° Southwest  Level FlightAware Approximate
04:23PM -48.8874 -78.3414 211° Southwest  Level FlightAware Approximate
04:24PM -48.9905 -78.4370 211° Southwest  Level FlightAware Approximate
04:25PM -49.0936 -78.5329 211° Southwest  Level FlightAware Approximate
04:26PM -49.1965 -78.6293 211° Southwest  Level FlightAware Approximate
04:27PM -49.2994 -78.7261 212° Southwest  Level FlightAware Approximate
04:28PM -49.4022 -78.8232 212° Southwest  Level FlightAware Approximate
04:29PM -49.5049 -78.9208 212° Southwest  Level FlightAware Approximate
04:30PM -49.6075 -79.0188 212° Southwest  Level FlightAware Approximate
04:31PM -49.7100 -79.1172 212° Southwest  Level FlightAware Approximate
04:32PM -49.8071 -79.2108 212° Southwest  Level FlightAware Approximate
04:33PM -49.9042 -79.3048 212° Southwest  Level FlightAware Approximate
04:34PM -50.0011 -79.3993 212° Southwest  Level FlightAware Approximate
04:35PM -50.0980 -79.4940 212° Southwest  Level FlightAware Approximate
04:36PM -50.1949 -79.5892 212° Southwest  Level FlightAware Approximate
04:37PM -50.2916 -79.6848 212° Southwest  Level FlightAware Approximate
04:38PM -50.3882 -79.7807 212° Southwest  Level FlightAware Approximate
04:39PM -50.4848 -79.8771 212° Southwest  Level FlightAware Approximate
04:40PM -50.5813 -79.9738 212° Southwest  Level FlightAware Approximate
04:41PM -50.6683 -80.0910 215° Southwest  Level Estimated
04:42PM -50.7655 -80.1863 212° Southwest  Level FlightAware Approximate
04:43PM -50.8627 -80.2819 212° Southwest  Level FlightAware Approximate
04:44PM -50.9598 -80.3779 212° Southwest  Level FlightAware Approximate
04:45PM -51.0568 -80.4743 212° Southwest  Level FlightAware Approximate
04:46PM -51.1537 -80.5712 212° Southwest  Level FlightAware Approximate
04:47PM -51.2506 -80.6684 212° Southwest  Level FlightAware Approximate
04:48PM -51.3474 -80.7661 212° Southwest  Level FlightAware Approximate
04:49PM -51.4440 -80.8641 212° Southwest  Level FlightAware Approximate
04:50PM -51.5406 -80.9626 212° Southwest  Level FlightAware Approximate
04:51PM -51.6372 -81.0615 212° Southwest  Level FlightAware Approximate
04:52PM -51.7336 -81.1608 213° Southwest  Level FlightAware Approximate
04:53PM -51.8300 -81.2606 213° Southwest  Level FlightAware Approximate
04:54PM -51.9263 -81.3607 213° Southwest  Level FlightAware Approximate
04:55PM -52.0224 -81.4613 213° Southwest  Level FlightAware Approximate
04:56PM -52.1185 -81.5623 213° Southwest  Level FlightAware Approximate
04:57PM -52.2146 -81.6638 213° Southwest  Level FlightAware Approximate
04:58PM -52.3105 -81.7657 213° Southwest  Level FlightAware Approximate
04:59PM -52.4063 -81.8681 213° Southwest  Level FlightAware Approximate
05:00PM -52.5021 -81.9709 213° Southwest  Level FlightAware Approximate
05:01PM -52.5977 -82.0741 213° Southwest  Level FlightAware Approximate
05:02PM -52.6933 -82.1778 213° Southwest  Level FlightAware Approximate
05:03PM -52.7888 -82.2820 213° Southwest  Level FlightAware Approximate
05:04PM -52.8842 -82.3866 213° Southwest  Level FlightAware Approximate
05:05PM -52.9795 -82.4917 214° Southwest  Level FlightAware Approximate
05:06PM -53.0747 -82.5972 214° Southwest  Level FlightAware Approximate
05:07PM -53.1698 -82.7032 214° Southwest  Level FlightAware Approximate
05:08PM -53.2648 -82.8096 214° Southwest  Level FlightAware Approximate
05:09PM -53.3597 -82.9166 214° Southwest  Level FlightAware Approximate
05:10PM -53.4546 -83.0240 214° Southwest  Level FlightAware Approximate
05:11PM -53.5493 -83.1319 214° Southwest  Level FlightAware Approximate
05:12PM -53.6439 -83.2403 214° Southwest  Level FlightAware Approximate
05:13PM -53.7385 -83.3492 214° Southwest  Level FlightAware Approximate
05:14PM -53.8218 -83.4820 220° Southwest  Level Estimated
05:15PM -53.9161 -83.5918 214° Southwest  Level FlightAware Approximate
05:16PM -54.0103 -83.7020 214° Southwest  Level FlightAware Approximate
05:17PM -54.1045 -83.8128 215° Southwest  Level FlightAware Approximate
05:18PM -54.1986 -83.9241 215° Southwest  Level FlightAware Approximate
05:19PM -54.2925 -84.0359 215° Southwest  Level FlightAware Approximate
05:20PM -54.3863 -84.1482 215° Southwest  Level FlightAware Approximate
05:21PM -54.4687 -84.2847 221° Southwest  Level Estimated
05:22PM -54.5616 -84.3999 216° Southwest  Level FlightAware Approximate
05:23PM -54.6543 -84.5156 216° Southwest  Level FlightAware Approximate
05:24PM -54.7469 -84.6318 216° Southwest  Level FlightAware Approximate
05:25PM -54.8395 -84.7485 216° Southwest  Level FlightAware Approximate
05:26PM -54.9319 -84.8658 216° Southwest  Level FlightAware Approximate
05:27PM -55.0242 -84.9837 216° Southwest  Level FlightAware Approximate
05:28PM -55.1164 -85.1020 216° Southwest  Level FlightAware Approximate
05:29PM -55.2085 -85.2209 216° Southwest  Level FlightAware Approximate
05:30PM -55.3004 -85.3404 216° Southwest  Level FlightAware Approximate
05:31PM -55.3923 -85.4604 217° Southwest  Level FlightAware Approximate
05:32PM -55.4840 -85.5810 217° Southwest  Level FlightAware Approximate
05:33PM -55.5756 -85.7022 217° Southwest  Level FlightAware Approximate
05:34PM -55.6671 -85.8239 217° Southwest  Level FlightAware Approximate
05:35PM -55.7584 -85.9462 217° Southwest  Level FlightAware Approximate
05:36PM -55.8497 -86.0690 217° Southwest  Level FlightAware Approximate
05:37PM -55.9408 -86.1925 217° Southwest  Level FlightAware Approximate
05:38PM -56.0318 -86.3165 217° Southwest  Level FlightAware Approximate
05:39PM -56.1227 -86.4411 217° Southwest  Level FlightAware Approximate
05:40PM -56.2134 -86.5663 217° Southwest  Level FlightAware Approximate
05:41PM -56.3040 -86.6920 218° Southwest  Level FlightAware Approximate
05:42PM -56.3945 -86.8184 218° Southwest  Level FlightAware Approximate
05:43PM -56.4849 -86.9454 218° Southwest  Level FlightAware Approximate
05:44PM -56.5751 -87.0730 218° Southwest  Level FlightAware Approximate
05:45PM -56.6652 -87.2012 218° Southwest  Level FlightAware Approximate
05:46PM -56.7552 -87.3300 218° Southwest  Level FlightAware Approximate
05:47PM -56.8450 -87.4594 218° Southwest  Level FlightAware Approximate
05:48PM -56.9347 -87.5895 218° Southwest  Level FlightAware Approximate
05:49PM -57.0243 -87.7202 218° Southwest  Level FlightAware Approximate
05:50PM -57.1137 -87.8515 219° Southwest  Level FlightAware Approximate
05:51PM -57.2030 -87.9834 219° Southwest  Level FlightAware Approximate
05:52PM -57.2921 -88.1160 219° Southwest  Level FlightAware Approximate
05:53PM -57.3811 -88.2492 219° Southwest  Level FlightAware Approximate
05:54PM -57.4700 -88.3831 219° Southwest  Level FlightAware Approximate
05:55PM -57.5587 -88.5176 219° Southwest  Level FlightAware Approximate
05:56PM -57.6473 -88.6528 219° Southwest  Level FlightAware Approximate
05:57PM -57.7357 -88.7887 219° Southwest  Level FlightAware Approximate
05:58PM -57.8240 -88.9252 219° Southwest  Level FlightAware Approximate
05:59PM -57.9122 -89.0623 220° Southwest  Level FlightAware Approximate
06:00PM -58.0002 -89.2002 220° Southwest  Level FlightAware Approximate
06:01PM -58.0880 -89.3387 220° Southwest  Level FlightAware Approximate
06:02PM -58.1757 -89.4780 220° Southwest  Level FlightAware Approximate
06:03PM -58.2632 -89.6179 220° Southwest  Level FlightAware Approximate
06:04PM -58.3506 -89.7585 220° Southwest  Level FlightAware Approximate
06:05PM -58.4379 -89.8997 220° Southwest  Level FlightAware Approximate
06:06PM -58.5249 -90.0417 220° Southwest  Level FlightAware Approximate
06:07PM -58.6119 -90.1844 221° Southwest  Level FlightAware Approximate
06:08PM -58.6986 -90.3279 221° Southwest  Level FlightAware Approximate
06:09PM -58.7852 -90.4720 221° Southwest  Level FlightAware Approximate
06:10PM -58.8717 -90.6168 221° Southwest  Level FlightAware Approximate
06:11PM -58.9579 -90.7624 221° Southwest  Level FlightAware Approximate
06:12PM -59.0440 -90.9087 221° Southwest  Level FlightAware Approximate
06:13PM -59.1300 -91.0557 221° Southwest  Level FlightAware Approximate
06:14PM -59.2158 -91.2035 221° Southwest  Level FlightAware Approximate
06:15PM -59.2892 -91.3752 235° Southwest  Level Estimated
06:16PM -59.3702 -91.5337 225° Southwest  Level FlightAware Approximate
06:17PM -59.4510 -91.6929 225° Southwest  Level FlightAware Approximate
06:18PM -59.5315 -91.8529 225° Southwest  Level FlightAware Approximate
06:19PM -59.6119 -92.0137 225° Southwest  Level FlightAware Approximate
06:20PM -59.6921 -92.1752 225° Southwest  Level FlightAware Approximate
06:21PM -59.7721 -92.3375 226° Southwest  Level FlightAware Approximate
06:22PM -59.8519 -92.5006 226° Southwest  Level FlightAware Approximate
06:23PM -59.9315 -92.6645 226° Southwest  Level FlightAware Approximate
06:24PM -60.0109 -92.8292 226° Southwest  Level FlightAware Approximate
06:25PM -60.0901 -92.9946 226° Southwest  Level FlightAware Approximate
06:26PM -60.1691 -93.1609 226° Southwest  Level FlightAware Approximate
06:27PM -60.2479 -93.3279 226° Southwest  Level FlightAware Approximate
06:28PM -60.3264 -93.4957 227° Southwest  Level FlightAware Approximate
06:29PM -60.4048 -93.6644 227° Southwest  Level FlightAware Approximate
06:30PM -60.4829 -93.8339 227° Southwest  Level FlightAware Approximate
06:31PM -60.5608 -94.0042 227° Southwest  Level FlightAware Approximate
06:32PM -60.6385 -94.1753 227° Southwest  Level FlightAware Approximate
06:33PM -60.7160 -94.3472 227° Southwest  Level FlightAware Approximate
06:34PM -60.7933 -94.5200 227° Southwest  Level FlightAware Approximate
06:35PM -60.8703 -94.6936 228° Southwest  Level FlightAware Approximate
06:36PM -60.9471 -94.8680 228° Southwest  Level FlightAware Approximate
06:37PM -61.0237 -95.0433 228° Southwest  Level FlightAware Approximate
06:38PM -61.1000 -95.2194 228° Southwest  Level FlightAware Approximate
06:39PM -61.1762 -95.3964 228° Southwest  Level FlightAware Approximate
06:40PM -61.2520 -95.5742 228° Southwest  Level FlightAware Approximate
06:41PM -61.3277 -95.7529 229° Southwest  Level FlightAware Approximate
06:42PM -61.4031 -95.9325 229° Southwest  Level FlightAware Approximate
06:43PM -61.4783 -96.1129 229° Southwest  Level FlightAware Approximate
06:44PM -61.5533 -96.2942 229° Southwest  Level FlightAware Approximate
06:45PM -61.6280 -96.4764 229° Southwest  Level FlightAware Approximate
06:46PM -61.7024 -96.6594 229° Southwest  Level FlightAware Approximate
06:47PM -61.7766 -96.8434 229° Southwest  Level FlightAware Approximate
06:48PM -61.8506 -97.0282 230° Southwest  Level FlightAware Approximate
06:49PM -61.9243 -97.2139 230° Southwest  Level FlightAware Approximate
06:50PM -61.9978 -97.4005 230° Southwest  Level FlightAware Approximate
06:51PM -62.0710 -97.5880 230° Southwest  Level FlightAware Approximate
06:52PM -62.1440 -97.7765 230° Southwest  Level FlightAware Approximate
06:53PM -62.2167 -97.9658 230° Southwest  Level FlightAware Approximate
06:54PM -62.2891 -98.1560 231° Southwest  Level FlightAware Approximate
06:55PM -62.3613 -98.3472 231° Southwest  Level FlightAware Approximate
06:56PM -62.4332 -98.5393 231° Southwest  Level FlightAware Approximate
06:57PM -62.5049 -98.7323 231° Southwest  Level FlightAware Approximate
06:58PM -62.5763 -98.9262 231° Southwest  Level FlightAware Approximate
06:59PM -62.6474 -99.1210 231° Southwest  Level FlightAware Approximate
07:00PM -62.7182 -99.3168 232° Southwest  Level FlightAware Approximate
07:01PM -62.7888 -99.5136 232° Southwest  Level FlightAware Approximate
07:02PM -62.8591 -99.7113 232° Southwest  Level FlightAware Approximate
07:03PM -62.9291 -99.9099 232° Southwest  Level FlightAware Approximate
07:04PM -62.9988 -100.1095 232° Southwest  Level FlightAware Approximate
07:05PM -63.0683 -100.3100 233° Southwest  Level FlightAware Approximate
07:06PM -63.1375 -100.5115 233° Southwest  Level FlightAware Approximate
07:07PM -63.1973 -100.7276 246° West  Level Estimated
07:08PM -63.2621 -100.9369 235° Southwest  Level FlightAware Approximate
07:09PM -63.3266 -101.1471 236° Southwest  Level FlightAware Approximate
07:10PM -63.3909 -101.3583 236° Southwest  Level FlightAware Approximate
07:11PM -63.4548 -101.5705 236° Southwest  Level FlightAware Approximate
07:12PM -63.5184 -101.7836 236° Southwest  Level FlightAware Approximate
07:13PM -63.5816 -101.9976 236° Southwest  Level FlightAware Approximate
07:14PM -63.6446 -102.2126 237° Southwest  Level FlightAware Approximate
07:15PM -63.7072 -102.4285 237° Southwest  Level FlightAware Approximate
07:16PM -63.7696 -102.6454 237° Southwest  Level FlightAware Approximate
07:17PM -63.8315 -102.8633 237° Southwest  Level FlightAware Approximate
07:18PM -63.8932 -103.0821 237° Southwest  Level FlightAware Approximate
07:19PM -63.9545 -103.3019 237° Southwest  Level FlightAware Approximate
07:20PM -64.0155 -103.5226 238° Southwest  Level FlightAware Approximate
07:21PM -64.0761 -103.7443 238° Southwest  Level FlightAware Approximate
07:22PM -64.1365 -103.9670 238° Southwest  Level FlightAware Approximate
07:23PM -64.1964 -104.1906 238° Southwest  Level FlightAware Approximate
07:24PM -64.2561 -104.4152 238° Southwest  Level FlightAware Approximate
07:25PM -64.3153 -104.6407 239° Southwest  Level FlightAware Approximate
07:26PM -64.3743 -104.8673 239° Southwest  Level FlightAware Approximate
07:27PM -64.4328 -105.0948 239° Southwest  Level FlightAware Approximate
07:28PM -64.4911 -105.3233 239° Southwest  Level FlightAware Approximate
07:29PM -64.5489 -105.5527 240° Southwest  Level FlightAware Approximate
07:30PM -64.6065 -105.7831 240° Southwest  Level FlightAware Approximate
07:31PM -64.6636 -106.0145 240° Southwest  Level FlightAware Approximate
07:32PM -64.7204 -106.2469 240° Southwest  Level FlightAware Approximate
07:33PM -64.7768 -106.4802 240° Southwest  Level FlightAware Approximate
07:34PM -64.8329 -106.7146 241° Southwest  Level FlightAware Approximate
07:35PM -64.8886 -106.9499 241° Southwest  Level FlightAware Approximate
07:36PM -64.9439 -107.1861 241° Southwest  Level FlightAware Approximate
07:37PM -64.9988 -107.4234 241° Southwest  Level FlightAware Approximate
07:38PM -65.0534 -107.6616 241° Southwest  Level FlightAware Approximate
07:39PM -65.1076 -107.9008 242° Southwest  Level FlightAware Approximate
07:40PM -65.1614 -108.1409 242° Southwest  Level FlightAware Approximate
07:41PM -65.2148 -108.3821 242° Southwest  Level FlightAware Approximate
07:42PM -65.2678 -108.6242 242° Southwest  Level FlightAware Approximate
07:43PM -65.3205 -108.8673 243° Southwest  Level FlightAware Approximate
07:44PM -65.3727 -109.1113 243° Southwest  Level FlightAware Approximate
07:45PM -65.4246 -109.3563 243° Southwest  Level FlightAware Approximate
07:46PM -65.4760 -109.6023 243° Southwest  Level FlightAware Approximate
07:47PM -65.5271 -109.8493 243° Southwest  Level FlightAware Approximate
07:48PM -65.5777 -110.0972 244° Southwest  Level FlightAware Approximate
07:49PM -65.6280 -110.3461 244° Southwest  Level FlightAware Approximate
07:50PM -65.6778 -110.5959 244° Southwest  Level FlightAware Approximate
07:51PM -65.7272 -110.8467 244° Southwest  Level FlightAware Approximate
07:52PM -65.7762 -111.0985 245° Southwest  Level FlightAware Approximate
07:53PM -65.8248 -111.3512 245° Southwest  Level FlightAware Approximate
07:54PM -65.8730 -111.6049 245° Southwest  Level FlightAware Approximate
07:55PM -65.9208 -111.8595 245° Southwest  Level FlightAware Approximate
07:56PM -65.9681 -112.1150 245° Southwest  Level FlightAware Approximate
07:57PM -66.0150 -112.3715 246° West  Level FlightAware Approximate
07:58PM -66.0615 -112.6290 246° West  Level FlightAware Approximate
07:59PM -66.1075 -112.8874 246° West  Level FlightAware Approximate
08:00PM -66.1531 -113.1467 246° West  Level FlightAware Approximate
08:01PM -66.1983 -113.4070 247° West  Level FlightAware Approximate
08:02PM -66.2431 -113.6681 247° West  Level FlightAware Approximate
08:03PM -66.2874 -113.9303 247° West  Level FlightAware Approximate
08:04PM -66.3312 -114.1933 247° West  Level FlightAware Approximate
08:05PM -66.3746 -114.4572 248° West  Level FlightAware Approximate
08:06PM -66.4176 -114.7221 248° West  Level FlightAware Approximate
08:07PM -66.4601 -114.9878 248° West  Level FlightAware Approximate
08:08PM -66.5022 -115.2545 248° West  Level FlightAware Approximate
08:09PM -66.5438 -115.5220 249° West  Level FlightAware Approximate
08:10PM -66.5849 -115.7905 249° West  Level FlightAware Approximate
08:11PM -66.6256 -116.0598 249° West  Level FlightAware Approximate
08:12PM -66.6658 -116.3301 249° West  Level FlightAware Approximate
08:13PM -66.7056 -116.6012 250° West  Level FlightAware Approximate
08:14PM -66.7384 -116.8785 252° West  Level Estimated
08:15PM -66.7787 -117.1499 249° West  Level FlightAware Approximate
08:16PM -66.8192 -117.4271 250° West  Level FlightAware Approximate
08:17PM -66.8511 -117.7118 254° West  Level Estimated
08:18PM -66.9000 -117.9808 245° Southwest  Level FlightAware Approximate
08:19PM -66.9485 -118.2510 245° Southwest  Level FlightAware Approximate
08:20PM -66.9965 -118.5222 246° West  Level FlightAware Approximate
08:21PM -67.0440 -118.7945 246° West  Level FlightAware Approximate
08:22PM -67.0911 -119.0678 246° West  Level FlightAware Approximate
08:23PM -67.1377 -119.3422 246° West  Level FlightAware Approximate
08:24PM -67.1838 -119.6177 247° West  Level FlightAware Approximate
08:25PM -67.2294 -119.8942 247° West  Level FlightAware Approximate
08:26PM -67.2746 -120.1718 247° West  Level FlightAware Approximate
08:27PM -67.3193 -120.4504 247° West  Level FlightAware Approximate
08:28PM -67.3635 -120.7300 248° West  Level FlightAware Approximate
08:29PM -67.4072 -121.0107 248° West  Level FlightAware Approximate
08:30PM -67.4505 -121.2924 248° West  Level FlightAware Approximate
08:31PM -67.4932 -121.5751 248° West  Level FlightAware Approximate
08:32PM -67.5354 -121.8588 249° West  Level FlightAware Approximate
08:33PM -67.5772 -122.1435 249° West  Level FlightAware Approximate
08:34PM -67.6184 -122.4293 249° West  Level FlightAware Approximate
08:35PM -67.6592 -122.7160 249° West  Level FlightAware Approximate
08:36PM -67.6994 -123.0037 250° West  Level FlightAware Approximate
08:37PM -67.7391 -123.2924 250° West  Level FlightAware Approximate
08:38PM -67.7784 -123.5821 250° West  Level FlightAware Approximate
08:39PM -67.8170 -123.8727 250° West  Level FlightAware Approximate
08:40PM -67.8552 -124.1644 251° West  Level FlightAware Approximate
08:41PM -67.8929 -124.4569 251° West  Level FlightAware Approximate
08:42PM -67.9300 -124.7504 251° West  Level FlightAware Approximate
08:43PM -67.9667 -125.0448 252° West  Level FlightAware Approximate
08:44PM -68.0027 -125.3402 252° West  Level FlightAware Approximate
08:45PM -68.0383 -125.6364 252° West  Level FlightAware Approximate
08:46PM -68.0733 -125.9336 252° West  Level FlightAware Approximate
08:47PM -68.1078 -126.2317 253° West  Level FlightAware Approximate
08:48PM -68.1418 -126.5306 253° West  Level FlightAware Approximate
08:49PM -68.1752 -126.8304 253° West  Level FlightAware Approximate
08:50PM -68.2080 -127.1311 253° West  Level FlightAware Approximate
08:51PM -68.2404 -127.4327 254° West  Level FlightAware Approximate
08:52PM -68.2721 -127.7351 254° West  Level FlightAware Approximate
08:53PM -68.3034 -128.0383 254° West  Level FlightAware Approximate
08:54PM -68.3340 -128.3424 255° West  Level FlightAware Approximate
08:55PM -68.3641 -128.6473 255° West  Level FlightAware Approximate
08:56PM -68.3937 -128.9529 255° West  Level FlightAware Approximate
08:57PM -68.4227 -129.2594 255° West  Level FlightAware Approximate
08:58PM -68.4511 -129.5666 256° West  Level FlightAware Approximate
08:59PM -68.4790 -129.8746 256° West  Level FlightAware Approximate
09:00PM -68.5063 -130.1834 256° West  Level FlightAware Approximate
09:01PM -68.5331 -130.4929 257° West  Level FlightAware Approximate
09:02PM -68.5592 -130.8031 257° West  Level FlightAware Approximate
09:03PM -68.5848 -131.1141 257° West  Level FlightAware Approximate
09:04PM -68.6098 -131.4257 257° West  Level FlightAware Approximate
09:05PM -68.6343 -131.7381 258° West  Level FlightAware Approximate
09:06PM -68.6581 -132.0511 258° West  Level FlightAware Approximate
09:07PM -68.6814 -132.3647 258° West  Level FlightAware Approximate
09:08PM -68.7041 -132.6790 259° West  Level FlightAware Approximate
09:09PM -68.7262 -132.9940 259° West  Level FlightAware Approximate
09:10PM -68.7478 -133.3095 259° West  Level FlightAware Approximate
09:11PM -68.7687 -133.6257 259° West  Level FlightAware Approximate
09:12PM -68.7890 -133.9424 260° West  Level FlightAware Approximate
09:13PM -68.8088 -134.2598 260° West  Level FlightAware Approximate
09:14PM -68.8280 -134.5777 260° West  Level FlightAware Approximate
09:15PM -68.8465 -134.8961 261° West  Level FlightAware Approximate
09:16PM -68.8642 -135.2095 261° West  Level FlightAware Approximate
09:17PM -68.8813 -135.5234 261° West  Level FlightAware Approximate
09:18PM -68.8978 -135.8377 262° West  Level FlightAware Approximate
09:19PM -68.9137 -136.1526 262° West  Level FlightAware Approximate
09:20PM -68.9092 -136.4703 277° West  Level Estimated
09:21PM -68.9232 -136.7860 263° West  Level FlightAware Approximate
09:22PM -68.9368 -137.1020 263° West  Level FlightAware Approximate
09:23PM -68.9497 -137.4185 263° West  Level FlightAware Approximate
09:24PM -68.9620 -137.7352 264° West  Level FlightAware Approximate
09:25PM -68.9738 -138.0524 264° West  Level FlightAware Approximate
09:26PM -68.9849 -138.3699 264° West  Level FlightAware Approximate
09:27PM -68.9955 -138.6876 265° West  Level FlightAware Approximate
09:28PM -69.0055 -139.0057 265° West  Level FlightAware Approximate
09:29PM -69.0149 -139.3241 265° West  Level FlightAware Approximate
09:30PM -69.0237 -139.6427 265° West  Level FlightAware Approximate
09:31PM -69.0319 -139.9616 266° West  Level FlightAware Approximate
09:32PM -69.0395 -140.2807 266° West  Level FlightAware Approximate
09:33PM -69.0465 -140.6000 266° West  Level FlightAware Approximate
09:34PM -69.0529 -140.9195 267° West  Level FlightAware Approximate
09:35PM -69.0587 -141.2392 267° West  Level FlightAware Approximate
09:36PM -69.0640 -141.5590 267° West  Level FlightAware Approximate
09:37PM -69.0686 -141.8790 268° West  Level FlightAware Approximate
09:38PM -69.0726 -142.1991 268° West  Level FlightAware Approximate
09:39PM -69.0761 -142.5194 268° West  Level FlightAware Approximate
09:40PM -69.0789 -142.8397 268° West  Level FlightAware Approximate
09:41PM -69.0812 -143.1601 269° West  Level FlightAware Approximate
09:42PM -69.0828 -143.4805 269° West  Level FlightAware Approximate
09:43PM -69.0839 -143.8010 269° West  Level FlightAware Approximate
09:44PM -69.0843 -144.1215 270° West  Level FlightAware Approximate
09:45PM -69.0842 -144.4420 270° West  Level FlightAware Approximate
09:46PM -69.0835 -144.7626 270° West  Level FlightAware Approximate
09:47PM -69.0821 -145.0830 271° West  Level FlightAware Approximate
09:48PM -69.0802 -145.4035 271° West  Level FlightAware Approximate
09:49PM -69.0776 -145.7238 271° West  Level FlightAware Approximate
09:50PM -69.0745 -146.0441 271° West  Level FlightAware Approximate
09:51PM -69.0708 -146.3643 272° West  Level FlightAware Approximate
09:52PM -69.0664 -146.6843 272° West  Level FlightAware Approximate
09:53PM -69.0615 -147.0043 272° West  Level FlightAware Approximate
09:54PM -69.0560 -147.3240 273° West  Level FlightAware Approximate
09:55PM -69.0499 -147.6436 273° West  Level FlightAware Approximate
09:56PM -69.0432 -147.9631 273° West  Level FlightAware Approximate
09:57PM -69.0359 -148.2823 274° West  Level FlightAware Approximate
09:58PM -69.0280 -148.6013 274° West  Level FlightAware Approximate
09:59PM -69.0195 -148.9200 274° West  Level FlightAware Approximate
10:00PM -69.0104 -149.2385 274° West  Level FlightAware Approximate
10:01PM -69.0007 -149.5567 275° West  Level FlightAware Approximate
10:02PM -68.9904 -149.8747 275° West  Level FlightAware Approximate
10:03PM -68.9796 -150.1923 275° West  Level FlightAware Approximate
10:04PM -68.9681 -150.5096 276° West  Level FlightAware Approximate
10:05PM -68.9561 -150.8266 276° West  Level FlightAware Approximate
10:06PM -68.9435 -151.1432 276° West  Level FlightAware Approximate
10:07PM -68.9303 -151.4595 276° West  Level FlightAware Approximate
10:08PM -68.9165 -151.7753 277° West  Level FlightAware Approximate
10:09PM -68.9021 -152.0908 277° West  Level FlightAware Approximate
10:10PM -68.8872 -152.4058 277° West  Level FlightAware Approximate
10:11PM -68.8716 -152.7204 278° West  Level FlightAware Approximate
10:12PM -68.8555 -153.0346 278° West  Level FlightAware Approximate
10:13PM -68.8388 -153.3483 278° West  Level FlightAware Approximate
10:14PM -68.8215 -153.6615 279° West  Level FlightAware Approximate
10:15PM -68.8037 -153.9742 279° West  Level FlightAware Approximate
10:16PM -68.7853 -154.2864 279° West  Level FlightAware Approximate
10:17PM -68.7663 -154.5981 279° West  Level FlightAware Approximate
10:18PM -68.7467 -154.9092 280° West  Level FlightAware Approximate
10:19PM -68.7266 -155.2198 280° West  Level FlightAware Approximate
10:20PM -68.7058 -155.5298 280° West  Level FlightAware Approximate
10:21PM -68.6846 -155.8393 281° West  Level FlightAware Approximate
10:22PM -68.6627 -156.1481 281° West  Level FlightAware Approximate
10:23PM -68.6403 -156.4564 281° West  Level FlightAware Approximate
10:24PM -68.6174 -156.7640 281° West  Level FlightAware Approximate
10:25PM -68.5733 -157.0533 299° West  Level Estimated
10:26PM -68.5431 -157.3552 285° West  Level FlightAware Approximate
10:27PM -68.5124 -157.6563 285° West  Level FlightAware Approximate
10:28PM -68.4811 -157.9566 286° West  Level FlightAware Approximate
10:29PM -68.4493 -158.2560 286° West  Level FlightAware Approximate
10:30PM -68.4169 -158.5546 286° West  Level FlightAware Approximate
10:31PM -68.3841 -158.8523 287° West  Level FlightAware Approximate
10:32PM -68.3507 -159.1492 287° West  Level FlightAware Approximate
10:33PM -68.3167 -159.4452 287° West  Level FlightAware Approximate
10:34PM -68.2823 -159.7403 287° West  Level FlightAware Approximate
10:35PM -68.2473 -160.0345 288° West  Level FlightAware Approximate
10:36PM -68.2118 -160.3278 288° West  Level FlightAware Approximate
10:37PM -68.1758 -160.6202 288° West  Level FlightAware Approximate
10:38PM -68.1393 -160.9116 288° West  Level FlightAware Approximate
10:39PM -68.1023 -161.2022 289° West  Level FlightAware Approximate
10:40PM -68.0648 -161.4917 289° West  Level FlightAware Approximate
10:41PM -68.0267 -161.7804 289° West  Level FlightAware Approximate
10:42PM -67.9882 -162.0681 290° West  Level FlightAware Approximate
10:43PM -67.9491 -162.3548 290° West  Level FlightAware Approximate
10:44PM -67.9096 -162.6406 290° West  Level FlightAware Approximate
10:45PM -67.8695 -162.9254 290° West  Level FlightAware Approximate
10:46PM -67.8290 -163.2092 291° West  Level FlightAware Approximate
10:47PM -67.7880 -163.4920 291° West  Level FlightAware Approximate
10:48PM -67.7465 -163.7738 291° West  Level FlightAware Approximate
10:49PM -67.7045 -164.0546 291° West  Level FlightAware Approximate
10:50PM -67.6620 -164.3344 292° West  Level FlightAware Approximate
10:51PM -67.6191 -164.6132 292° West  Level FlightAware Approximate
10:52PM -67.5756 -164.8909 292° West  Level FlightAware Approximate
10:53PM -67.5317 -165.1677 292° West  Level FlightAware Approximate
10:54PM -67.4874 -165.4434 293° West  Level FlightAware Approximate
10:55PM -67.4425 -165.7181 293° West  Level FlightAware Approximate
10:56PM -67.3972 -165.9917 293° West  Level FlightAware Approximate
10:57PM -67.3515 -166.2643 293° West  Level FlightAware Approximate
10:58PM -67.3052 -166.5359 294° West  Level FlightAware Approximate
10:59PM -67.2586 -166.8064 294° West  Level FlightAware Approximate
11:00PM -67.2114 -167.0759 294° West  Level FlightAware Approximate
11:01PM -67.1638 -167.3443 294° West  Level FlightAware Approximate
11:02PM -67.1158 -167.6116 295° West  Level FlightAware Approximate
11:03PM -67.0673 -167.8779 295° West  Level FlightAware Approximate
11:04PM -67.0184 -168.1431 295° West  Level FlightAware Approximate
11:05PM -66.9691 -168.4072 295° West  Level FlightAware Approximate
11:06PM -66.9193 -168.6702 296° West  Level FlightAware Approximate
11:07PM -66.8690 -168.9322 296° West  Level FlightAware Approximate
11:08PM -66.8184 -169.1931 296° West  Level FlightAware Approximate
11:09PM -66.7673 -169.4529 296° West  Level FlightAware Approximate
11:10PM -66.7158 -169.7117 297° West  Level FlightAware Approximate
11:11PM -66.6638 -169.9693 297° West  Level FlightAware Approximate
11:12PM -66.6115 -170.2259 297° West  Level FlightAware Approximate
11:13PM -66.5587 -170.4814 297° West  Level FlightAware Approximate
11:14PM -66.5055 -170.7358 298° West  Level FlightAware Approximate
11:15PM -66.4519 -170.9891 298° West  Level FlightAware Approximate
11:16PM -66.3979 -171.2413 298° West  Level FlightAware Approximate
11:17PM -66.3435 -171.4925 298° West  Level FlightAware Approximate
11:18PM -66.2887 -171.7425 299° West  Level FlightAware Approximate
11:19PM -66.2335 -171.9915 299° West  Level FlightAware Approximate
11:20PM -66.1779 -172.2393 299° West  Level FlightAware Approximate
11:21PM -66.1218 -172.4861 299° West  Level FlightAware Approximate
11:22PM -66.0655 -172.7318 299° West  Level FlightAware Approximate
11:23PM -66.0087 -172.9763 300° West  Level FlightAware Approximate
11:24PM -65.9515 -173.2198 300° West  Level FlightAware Approximate
11:25PM -65.8939 -173.4622 300° West  Level FlightAware Approximate
11:26PM -65.8360 -173.7036 300° West  Level FlightAware Approximate
11:27PM -65.7777 -173.9438 301° West  Level FlightAware Approximate
11:28PM -65.7190 -174.1829 301° West  Level FlightAware Approximate
11:29PM -65.6599 -174.4210 301° West  Level FlightAware Approximate
11:30PM -65.6005 -174.6579 301° West  Level FlightAware Approximate
11:31PM -65.5407 -174.8938 301° West  Level FlightAware Approximate
11:32PM -65.4805 -175.1286 302° West  Level FlightAware Approximate
11:33PM -65.4200 -175.3624 302° West  Level FlightAware Approximate
11:34PM -65.3591 -175.5950 302° West  Level FlightAware Approximate
11:35PM -65.2979 -175.8266 302° West  Level FlightAware Approximate
11:36PM -65.2363 -176.0570 302° West  Level FlightAware Approximate
11:37PM -65.1743 -176.2864 303° West  Level FlightAware Approximate
11:38PM -65.1121 -176.5148 303° West  Level FlightAware Approximate
11:39PM -65.0494 -176.7420 303° West  Level FlightAware Approximate
11:40PM -64.9864 -176.9682 303° West  Level FlightAware Approximate
11:41PM -64.9231 -177.1933 303° West  Level FlightAware Approximate
11:42PM -64.8595 -177.4174 304° West  Level FlightAware Approximate
11:43PM -64.7954 -177.6404 304° West  Level FlightAware Approximate
11:44PM -64.7311 -177.8624 304° West  Level FlightAware Approximate
11:45PM -64.6665 -178.0832 304° West  Level FlightAware Approximate
11:46PM -64.6015 -178.3031 305° West  Level FlightAware Approximate
11:47PM -64.5362 -178.5219 305° West  Level FlightAware Approximate
11:48PM -64.4705 -178.7396 305° West  Level FlightAware Approximate
11:49PM -64.4046 -178.9563 305° West  Level FlightAware Approximate
11:50PM -64.3383 -179.1719 305° West  Level FlightAware Approximate
11:51PM -64.2575 -179.3588 325° Northwest  Level Estimated
11:52PM -64.1801 -179.5524 313° West  Level FlightAware Approximate
11:53PM -64.1024 -179.7450 313° West  Level FlightAware Approximate
11:54PM -64.0244 -179.9365 313° West  Level FlightAware Approximate
11:55PM -63.9462 179.8730 313° West  Level FlightAware Approximate
11:56PM -63.8678 179.6836 313° West  Level FlightAware Approximate
11:57PM -63.7891 179.4953 313° West  Level FlightAware Approximate
11:58PM -63.7101 179.3080 314° West  Level FlightAware Approximate
11:59PM -63.6309 179.1218 314° West  Level FlightAware Approximate
12:00AM -63.5515 178.9366 314° West  Level FlightAware Approximate
12:01AM -63.4719 178.7524 314° West  Level FlightAware Approximate
12:02AM -63.3920 178.5693 314° West  Level FlightAware Approximate
12:03AM -63.3118 178.3871 314° West  Level FlightAware Approximate
12:04AM -63.2315 178.2060 315° West  Level FlightAware Approximate
12:05AM -63.1509 178.0259 315° West  Level FlightAware Approximate
12:06AM -63.0701 177.8468 315° West  Level FlightAware Approximate
12:07AM -62.9890 177.6687 315° West  Level FlightAware Approximate
12:08AM -62.9078 177.4915 315° West  Level FlightAware Approximate
12:09AM -62.8263 177.3154 315° West  Level FlightAware Approximate
12:10AM -62.7446 177.1402 315° West  Level FlightAware Approximate
12:11AM -62.6627 176.9660 316° Northwest  Level FlightAware Approximate
12:12AM -62.5806 176.7928 316° Northwest  Level FlightAware Approximate
12:13AM -62.4982 176.6205 316° Northwest  Level FlightAware Approximate
12:14AM -62.4156 176.4492 316° Northwest  Level FlightAware Approximate
12:15AM -62.3329 176.2788 316° Northwest  Level FlightAware Approximate
12:16AM -62.2499 176.1093 316° Northwest  Level FlightAware Approximate
12:17AM -62.1667 175.9408 317° Northwest  Level FlightAware Approximate
12:18AM -62.0834 175.7732 317° Northwest  Level FlightAware Approximate
12:19AM -61.9998 175.6065 317° Northwest  Level FlightAware Approximate
12:20AM -61.9160 175.4407 317° Northwest  Level FlightAware Approximate
12:21AM -61.8320 175.2759 317° Northwest  Level FlightAware Approximate
12:22AM -61.7478 175.1119 317° Northwest  Level FlightAware Approximate
12:23AM -61.6635 174.9489 317° Northwest  Level FlightAware Approximate
12:24AM -61.5789 174.7867 318° Northwest  Level FlightAware Approximate
12:25AM -61.4941 174.6254 318° Northwest  Level FlightAware Approximate
12:26AM -61.4092 174.4650 318° Northwest  Level FlightAware Approximate
12:27AM -61.3241 174.3055 318° Northwest  Level FlightAware Approximate
12:28AM -61.2387 174.1468 318° Northwest  Level FlightAware Approximate
12:29AM -61.1532 173.9890 318° Northwest  Level FlightAware Approximate
12:30AM -61.0676 173.8320 318° Northwest  Level FlightAware Approximate
12:31AM -60.9817 173.6759 319° Northwest  Level FlightAware Approximate
12:32AM -60.8956 173.5206 319° Northwest  Level FlightAware Approximate
12:33AM -60.8094 173.3662 319° Northwest  Level FlightAware Approximate
12:34AM -60.7230 173.2126 319° Northwest  Level FlightAware Approximate
12:35AM -60.6364 173.0598 319° Northwest  Level FlightAware Approximate
12:36AM -60.5497 172.9078 319° Northwest  Level FlightAware Approximate
12:37AM -60.4628 172.7567 319° Northwest  Level FlightAware Approximate
12:38AM -60.3757 172.6063 319° Northwest  Level FlightAware Approximate
12:39AM -60.2884 172.4568 320° Northwest  Level FlightAware Approximate
12:40AM -60.2010 172.3080 320° Northwest  Level FlightAware Approximate
12:41AM -60.1134 172.1601 320° Northwest  Level FlightAware Approximate
12:42AM -60.0256 172.0129 320° Northwest  Level FlightAware Approximate
12:43AM -59.9377 171.8665 320° Northwest  Level FlightAware Approximate
12:44AM -59.8496 171.7209 320° Northwest  Level FlightAware Approximate
12:45AM -59.7614 171.5761 320° Northwest  Level FlightAware Approximate
12:46AM -59.6730 171.4320 321° Northwest  Level FlightAware Approximate
12:47AM -59.5844 171.2887 321° Northwest  Level FlightAware Approximate
12:48AM -59.4957 171.1461 321° Northwest  Level FlightAware Approximate
12:49AM -59.4069 171.0043 321° Northwest  Level FlightAware Approximate
12:50AM -59.3178 170.8633 321° Northwest  Level FlightAware Approximate
12:51AM -59.2287 170.7229 321° Northwest  Level FlightAware Approximate
12:52AM -59.1357 170.5927 329° Northwest  Level Estimated
12:53AM -59.0453 170.4562 322° Northwest  Level FlightAware Approximate
12:54AM -58.9547 170.3205 322° Northwest  Level FlightAware Approximate
12:55AM -58.8640 170.1854 322° Northwest  Level FlightAware Approximate
12:56AM -58.7731 170.0511 323° Northwest  Level FlightAware Approximate
12:57AM -58.6821 169.9174 323° Northwest  Level FlightAware Approximate
12:58AM -58.5910 169.7845 323° Northwest  Level FlightAware Approximate
12:59AM -58.4997 169.6522 323° Northwest  Level FlightAware Approximate
01:00AM -58.4083 169.5207 323° Northwest  Level FlightAware Approximate
01:01AM -58.3168 169.3898 323° Northwest  Level FlightAware Approximate
01:02AM -58.2251 169.2596 323° Northwest  Level FlightAware Approximate
01:03AM -58.1333 169.1300 323° Northwest  Level FlightAware Approximate
01:04AM -58.0414 169.0012 323° Northwest  Level FlightAware Approximate
01:05AM -57.9493 168.8730 324° Northwest  Level FlightAware Approximate
01:06AM -57.8572 168.7454 324° Northwest  Level FlightAware Approximate
01:07AM -57.7648 168.6185 324° Northwest  Level FlightAware Approximate
01:08AM -57.6724 168.4922 324° Northwest  Level FlightAware Approximate
01:09AM -57.5798 168.3666 324° Northwest  Level FlightAware Approximate
01:10AM -57.4871 168.2417 324° Northwest  Level FlightAware Approximate
01:11AM -57.3943 168.1173 324° Northwest  Level FlightAware Approximate
01:12AM -57.2986 168.0010 336° Northwest  Level Estimated
01:13AM -57.2006 167.8920 329° Northwest  Level FlightAware Approximate
01:14AM -57.1024 167.7836 329° Northwest  Level FlightAware Approximate
01:15AM -57.0041 167.6759 329° Northwest  Level FlightAware Approximate
01:16AM -56.9058 167.5686 329° Northwest  Level FlightAware Approximate
01:17AM -56.8073 167.4619 329° Northwest  Level FlightAware Approximate
01:18AM -56.7088 167.3558 329° Northwest  Level FlightAware Approximate
01:19AM -56.6102 167.2503 329° Northwest  Level FlightAware Approximate
01:20AM -56.5115 167.1453 330° Northwest  Level FlightAware Approximate
01:21AM -56.4127 167.0408 330° Northwest  Level FlightAware Approximate
01:22AM -56.3138 166.9369 330° Northwest  Level FlightAware Approximate
01:23AM -56.2148 166.8335 330° Northwest  Level FlightAware Approximate
01:24AM -56.1157 166.7307 330° Northwest  Level FlightAware Approximate
01:25AM -56.0166 166.6284 330° Northwest  Level FlightAware Approximate
01:26AM -55.9174 166.5266 330° Northwest  Level FlightAware Approximate
01:27AM -55.8180 166.4253 330° Northwest  Level FlightAware Approximate
01:28AM -55.7186 166.3245 330° Northwest  Level FlightAware Approximate
01:29AM -55.6192 166.2243 330° Northwest  Level FlightAware Approximate
01:30AM -55.5196 166.1245 330° Northwest  Level FlightAware Approximate
01:31AM -55.4200 166.0253 331° Northwest  Level FlightAware Approximate
01:32AM -55.3202 165.9265 331° Northwest  Level FlightAware Approximate
01:33AM -55.2204 165.8283 331° Northwest  Level FlightAware Approximate
01:34AM -55.1206 165.7306 331° Northwest  Level FlightAware Approximate
01:35AM -55.0206 165.6333 331° Northwest  Level FlightAware Approximate
01:36AM -54.9206 165.5365 331° Northwest  Level FlightAware Approximate
01:37AM -54.8205 165.4402 331° Northwest  Level FlightAware Approximate
01:38AM -54.7203 165.3444 331° Northwest  Level FlightAware Approximate
01:39AM -54.6200 165.2491 331° Northwest  Level FlightAware Approximate
01:40AM -54.5197 165.1542 331° Northwest  Level FlightAware Approximate
01:41AM -54.4193 165.0598 331° Northwest  Level FlightAware Approximate
01:42AM -54.3188 164.9658 331° Northwest  Level FlightAware Approximate
01:43AM -54.2182 164.8723 331° Northwest  Level FlightAware Approximate
01:44AM -54.1176 164.7793 332° Northwest  Level FlightAware Approximate
01:45AM -54.0169 164.6867 332° Northwest  Level FlightAware Approximate
01:46AM -53.9161 164.5945 332° Northwest  Level FlightAware Approximate
01:47AM -53.8153 164.5029 332° Northwest  Level FlightAware Approximate
01:48AM -53.7144 164.4116 332° Northwest  Level FlightAware Approximate
01:49AM -53.6134 164.3208 332° Northwest  Level FlightAware Approximate
01:50AM -53.5123 164.2304 332° Northwest  Level FlightAware Approximate
01:51AM -53.4112 164.1404 332° Northwest  Level FlightAware Approximate
01:52AM -53.3100 164.0509 332° Northwest  Level FlightAware Approximate
01:53AM -53.2088 163.9618 332° Northwest  Level FlightAware Approximate
01:54AM -53.1075 163.8731 332° Northwest  Level FlightAware Approximate
01:55AM -53.0061 163.7848 332° Northwest  Level FlightAware Approximate
01:56AM -52.9046 163.6970 332° Northwest  Level FlightAware Approximate
01:57AM -52.8031 163.6095 332° Northwest  Level FlightAware Approximate
01:58AM -52.7016 163.5225 333° Northwest  Level FlightAware Approximate
01:59AM -52.5999 163.4359 333° Northwest  Level FlightAware Approximate
02:00AM -52.4982 163.3496 333° Northwest  Level FlightAware Approximate
02:01AM -52.3965 163.2638 333° Northwest  Level FlightAware Approximate
02:02AM -52.2946 163.1783 333° Northwest  Level FlightAware Approximate
02:03AM -52.1927 163.0933 333° Northwest  Level FlightAware Approximate
02:04AM -52.0908 163.0086 333° Northwest  Level FlightAware Approximate
02:05AM -51.9888 162.9244 333° Northwest  Level FlightAware Approximate
02:06AM -51.8867 162.8405 333° Northwest  Level FlightAware Approximate
02:07AM -51.7846 162.7570 333° Northwest  Level FlightAware Approximate
02:08AM -51.6824 162.6738 333° Northwest  Level FlightAware Approximate
02:09AM -51.5802 162.5911 333° Northwest  Level FlightAware Approximate
02:10AM -51.4779 162.5087 333° Northwest  Level FlightAware Approximate
02:11AM -51.3755 162.4267 333° Northwest  Level FlightAware Approximate
02:12AM -51.2731 162.3450 333° Northwest  Level FlightAware Approximate
02:13AM -51.1706 162.2637 334° Northwest  Level FlightAware Approximate
02:14AM -51.0681 162.1828 334° Northwest  Level FlightAware Approximate
02:15AM -50.9655 162.1022 334° Northwest  Level FlightAware Approximate
02:16AM -50.8628 162.0220 334° Northwest  Level FlightAware Approximate
02:17AM -50.7601 161.9422 334° Northwest  Level FlightAware Approximate
02:18AM -50.6574 161.8627 334° Northwest  Level FlightAware Approximate
02:19AM -50.5546 161.7835 334° Northwest  Level FlightAware Approximate
02:20AM -50.4517 161.7047 334° Northwest  Level FlightAware Approximate
02:21AM -50.3488 161.6262 334° Northwest  Level FlightAware Approximate
02:22AM -50.2459 161.5481 334° Northwest  Level FlightAware Approximate
02:23AM -50.1428 161.4703 334° Northwest  Level FlightAware Approximate
02:24AM -50.0398 161.3928 334° Northwest  Level FlightAware Approximate
02:25AM -49.9367 161.3157 334° Northwest  Level FlightAware Approximate
02:26AM -49.8335 161.2389 334° Northwest  Level FlightAware Approximate
02:27AM -49.7303 161.1624 334° Northwest  Level FlightAware Approximate
02:28AM -49.6299 161.0775 342° North  Level Estimated
02:29AM -49.5240 161.0105 338° Northwest  Level FlightAware Approximate
02:30AM -49.4181 160.9439 338° Northwest  Level FlightAware Approximate
02:31AM -49.3122 160.8775 338° Northwest  Level FlightAware Approximate
02:32AM -49.2062 160.8114 338° Northwest  Level FlightAware Approximate
02:33AM -49.1002 160.7456 338° Northwest  Level FlightAware Approximate
02:34AM -48.9941 160.6801 338° Northwest  Level FlightAware Approximate
02:35AM -48.8880 160.6148 338° Northwest  Level FlightAware Approximate
02:36AM -48.7819 160.5498 338° Northwest  Level FlightAware Approximate
02:37AM -48.6757 160.4851 338° Northwest  Level FlightAware Approximate
02:38AM -48.5695 160.4207 338° Northwest  Level FlightAware Approximate
02:39AM -48.4633 160.3566 338° Northwest  Level FlightAware Approximate
02:40AM -48.3570 160.2927 338° Northwest  Level FlightAware Approximate
02:41AM -48.2507 160.2290 338° Northwest  Level FlightAware Approximate
02:42AM -48.1444 160.1657 338° Northwest  Level FlightAware Approximate
02:43AM -48.0380 160.1026 338° Northwest  Level FlightAware Approximate
02:44AM -47.9316 160.0398 338° Northwest  Level FlightAware Approximate
02:45AM -47.8251 159.9772 338° Northwest  Level FlightAware Approximate
02:46AM -47.7187 159.9149 339° North  Level FlightAware Approximate
02:47AM -47.6121 159.8528 339° North  Level FlightAware Approximate
02:48AM -47.5056 159.7910 339° North  Level FlightAware Approximate
02:49AM -47.3990 159.7294 339° North  Level FlightAware Approximate
02:50AM -47.2924 159.6681 339° North  Level FlightAware Approximate
02:51AM -47.1857 159.6071 339° North  Level FlightAware Approximate
02:52AM -47.0791 159.5462 339° North  Level FlightAware Approximate
02:53AM -46.9724 159.4857 339° North  Level FlightAware Approximate
02:54AM -46.8656 159.4253 339° North  Level FlightAware Approximate
02:55AM -46.7588 159.3652 339° North  Level FlightAware Approximate
02:56AM -46.6520 159.3053 339° North  Level FlightAware Approximate
02:57AM -46.5452 159.2457 339° North  Level FlightAware Approximate
02:58AM -46.4383 159.1863 339° North  Level FlightAware Approximate
02:59AM -46.3314 159.1272 339° North  Level FlightAware Approximate
03:00AM -46.2245 159.0682 339° North  Level FlightAware Approximate
03:01AM -46.1175 159.0095 339° North  Level FlightAware Approximate
03:02AM -46.0105 158.9511 339° North  Level FlightAware Approximate
03:03AM -45.9035 158.8928 339° North  Level FlightAware Approximate
03:04AM -45.7965 158.8348 339° North  Level FlightAware Approximate
03:05AM -45.6894 158.7770 339° North  Level FlightAware Approximate
03:06AM -45.5823 158.7194 339° North  Level FlightAware Approximate
03:07AM -45.4751 158.6621 339° North  Level FlightAware Approximate
03:08AM -45.3680 158.6049 339° North  Level FlightAware Approximate
03:09AM -45.2608 158.5480 340° North  Level FlightAware Approximate
03:10AM -45.1536 158.4913 340° North  Level FlightAware Approximate
03:11AM -45.0463 158.4348 340° North  Level FlightAware Approximate
03:12AM -44.9390 158.3785 340° North  Level FlightAware Approximate
03:13AM -44.8317 158.3224 340° North  Level FlightAware Approximate
03:14AM -44.7244 158.2666 340° North  Level FlightAware Approximate
03:15AM -44.6171 158.2109 340° North  Level FlightAware Approximate
03:16AM -44.5097 158.1554 340° North  Level FlightAware Approximate
03:17AM -44.4022 158.1002 340° North  Level FlightAware Approximate
03:18AM -44.2948 158.0451 340° North  Level FlightAware Approximate
03:18AM -37.2558 154.1493 340° North 423 487 38,300  Level Aus ATC (RADAR)
03:19AM -37.1310 154.0877 338° Northwest 426 490 38,300  Level Aus ATC (RADAR)
03:20AM -37.0654 154.0519 336° Northwest 426 490 38,300  Level Aus ATC (RADAR)
03:20AM -36.9617 153.9969 337° Northwest 425 489 38,300 -180 Level Aus ATC (RADAR)
03:21AM -36.8680 153.9510 338° Northwest 443 510 38,000  Descending FlightAware
03:21AM -36.8584 153.9413 337° Northwest 425 489 38,300  Climbing Aus ATC (RADAR)
03:22AM -36.8140 153.9230 337° Northwest 443 510 38,000  Descending FlightAware
03:22AM -36.7914 153.9081 338° Northwest 425 489 38,300  Climbing Aus ATC (RADAR)
03:23AM -36.7340 153.8800 337° Northwest 443 510 38,000 -240 Descending FlightAware
03:23AM -36.6700 153.8460 337° Northwest 443 510 38,000 240 Level FlightAware
03:24AM -36.5729 153.7971 337° Northwest 425 489 38,300  Climbing Aus ATC (RADAR)
03:24AM -36.6050 153.8120 337° Northwest 443 510 38,000  Descending FlightAware
03:24AM -36.5055 153.7644 337° Northwest 427 491 38,300 360 Climbing Aus ATC (RADAR)
03:25AM -36.4920 153.7580 338° Northwest 38,000  Descending FlightAware
03:25AM -36.4672 153.7453 338° Northwest 429 494 38,300 360 Climbing Aus ATC (RADAR)
03:25AM -36.3995 153.7114 338° Northwest 429 494 38,300 -300 Level Aus ATC (RADAR)
03:26AM -36.3550 153.6880 338° Northwest 444 511 38,000  Descending FlightAware
03:26AM -36.2859 153.6528 338° Northwest 429 494 38,300  Climbing Aus ATC (RADAR)
03:27AM -36.2780 153.6480 338° Northwest 445 512 38,000  Descending FlightAware
03:27AM -36.2194 153.6184 338° Northwest 429 494 38,300  Climbing Aus ATC (RADAR)
03:27AM -36.2030 153.6090 338° Northwest 445 512 38,000 -300 Descending FlightAware
03:28AM -36.1390 153.5750 337° Northwest 445 512 38,000 120 Level FlightAware
03:29AM -35.9695 153.4921 337° Northwest 436 502 38,300 120 Climbing Aus ATC (RADAR)
03:30AM -35.9012 153.4601 339° North 438 504 38,300  Level Aus ATC (RADAR)
03:30AM -35.8736 153.4442 335° Northwest 433 498 38,300  Level Aus ATC (RADAR)
03:31AM -35.7950 153.4074 339° North 434 499 38,300  Level Aus ATC (RADAR)
03:32AM -35.6692 153.3449 338° Northwest 436 502 38,300 -300 Level Aus ATC (RADAR)
03:32AM -35.6710 153.3430 338° Northwest 449 517 38,000  Descending FlightAware
03:32AM -35.6028 153.3109 338° Northwest 432 497 38,300  Climbing Aus ATC (RADAR)
03:32AM -35.6050 153.3110 338° Northwest 449 517 38,000 -420 Descending FlightAware
03:33AM -35.5340 153.2730 338° Northwest 449 517 38,000 360 Level FlightAware
03:33AM -35.5068 153.2623 338° Northwest 431 496 38,300  Climbing Aus ATC (RADAR)
03:34AM -35.4320 153.2240 339° North 450 518 38,000 -240 Descending FlightAware
03:34AM -35.3590 153.1880 338° Northwest 449 517 38,000 300 Level FlightAware
03:35AM -35.3134 153.1668 338° Northwest 435 501 38,300 540 Climbing Aus ATC (RADAR)
03:35AM -35.2848 153.1522 337° Northwest 434 499 38,300 -840 Level Aus ATC (RADAR)
03:35AM -35.2810 153.1500 337° Northwest 448 516 38,000  Descending FlightAware
03:36AM -35.2171 153.1196 337° Northwest 436 502 38,300  Climbing Aus ATC (RADAR)
03:36AM -35.1860 153.1030 337° Northwest 448 516 38,000 -300 Descending FlightAware
03:37AM -35.1060 153.0630 338° Northwest 446 513 38,000 240 Level FlightAware
03:37AM -35.0544 153.0390 338° Northwest 432 497 38,300  Climbing Aus ATC (RADAR)
03:37AM -35.0270 153.0240 338° Northwest 444 511 38,000 -300 Descending FlightAware
03:38AM -34.9450 152.9830 338° Northwest 441 507 38,000 240 Level FlightAware
03:38AM -34.8931 152.9593 338° Northwest 428 493 38,300 480 Climbing Aus ATC (RADAR)
03:39AM -34.8649 152.9451 338° Northwest 428 493 38,300 -840 Level Aus ATC (RADAR)
03:39AM -34.8600 152.9430 338° Northwest 440 506 38,000 -420 Descending FlightAware
03:39AM -34.7960 152.9110 338° Northwest 440 506 38,000  Level FlightAware
03:40AM -34.7229 152.8766 338° Northwest 429 494 38,000 -960 Level Aus ATC (RADAR)
03:40AM -34.7000 152.8640 338° Northwest 437 503 37,200 -2,640 Descending FlightAware
03:41AM -34.6330 152.8310 338° Northwest 431 496 35,700 -2,700 Descending FlightAware
03:42AM -34.5530 152.7930 339° North 437 503 33,600 -2,640 Descending FlightAware
03:42AM -34.5085 152.7718 339° North 427 491 33,000 -2,400 Descending Aus ATC (RADAR)
03:42AM -34.4670 152.7510 339° North 430 495 31,800 -2,580 Descending FlightAware
03:43AM -34.3650 152.7030 339° North 429 494 29,500 -2,580 Descending FlightAware
03:44AM -34.2890 152.6660 338° Northwest 424 488 27,800 -2,340 Descending FlightAware
03:44AM -34.2418 152.6432 338° Northwest 416 479 27,100 -2,160 Descending Aus ATC (RADAR)
03:45AM -34.2120 152.6280 338° Northwest 418 481 26,200 -2,400 Descending FlightAware
03:45AM -34.1360 152.5920 339° North 414 476 24,600 -2,520 Descending FlightAware
03:46AM -34.0960 152.5640 330° Northwest 406 467 23,500 -2,040 Descending FlightAware
03:46AM -34.0710 152.5250 308° West 390 449 22,900 -1,860 Descending FlightAware
03:47AM -34.0611 152.4437 308° West 378 435 21,800 -2,220 Descending Aus ATC (RADAR)
03:47AM -34.0630 152.4040 308° West 377 434 20,900 -2,160 Descending FlightAware
03:48AM -34.0590 152.3290 274° West 372 428 19,700 -2,040 Descending FlightAware
03:48AM -34.0520 152.2514 274° West 359 413 18,600 -2,160 Descending Aus ATC (RADAR)
03:48AM -34.0500 152.2310 274° West 370 426 17,900 -1,920 Descending FlightAware
03:49AM -34.0450 152.1800 274° West 361 415 17,500 -1,800 Descending Aus ATC (RADAR)
03:49AM -34.0420 152.1520 274° West 364 419 16,700 -1,860 Descending FlightAware
03:50AM -34.0350 152.0770 276° West 342 394 15,800 -1,140 Descending FlightAware
03:50AM -34.0283 152.0167 276° West 324 373 15,500 -720 Descending Aus ATC (RADAR)
03:50AM -34.0258 151.9900 276° West 318 366 15,300 -1,440 Descending Aus ATC (RADAR)
03:51AM -34.0250 151.9860 276° West 317 365 15,000 -1,200 Descending FlightAware
03:51AM -34.0193 151.9208 276° West 305 351 14,500 -1,200 Descending Aus ATC (RADAR)
03:51AM -34.0180 151.9110 276° West 310 357 14,100 -1,920 Descending FlightAware
03:52AM -34.0120 151.8420 276° West 315 362 12,900 -1,680 Descending FlightAware
03:53AM -34.0050 151.7710 277° West 309 356 11,900 -1,560 Descending FlightAware
03:53AM -33.9970 151.6920 277° West 300 345 10,700 -1,620 Descending FlightAware
03:54AM -33.9930 151.6561 277° West 296 341 10,200 2,160 Descending Aus ATC (RADAR)
03:54AM -33.9940 151.6510 277° West 309 356 11,900 -1,860 Climbing FlightAware
03:54AM -33.9880 151.6050 279° West 289 333 9,100 -5,040 Descending FlightAware
03:55AM -33.9844 151.5722 279° West 287 330 8,900 -960 Descending Aus ATC (RADAR)
03:55AM -33.9840 151.5680 279° West 289 333 8,700 -1,620 Descending FlightAware
03:55AM -33.9820 151.5490 277° West 288 331 8,400 -1,380 Descending FlightAware
03:55AM -33.9770 151.5100 279° West 292 336 7,900 -720 Descending FlightAware
03:56AM -33.9720 151.4690 278° West 291 335 7,800 120 Descending FlightAware
03:56AM -33.9658 151.4236 278° West 282 325 8,000  Climbing Aus ATC (RADAR)
03:56AM -33.9670 151.4340 278° West 290 334 7,800 -420 Descending FlightAware
03:57AM -33.9600 151.3840 280° West 290 334 7,800 240 Level FlightAware
03:57AM -33.9549 151.3406 280° West 285 328 8,000 -180 Climbing Aus ATC (RADAR)
03:57AM -33.9530 151.3200 280° West 287 330 7,700 -900 Descending FlightAware
03:58AM -33.9576 151.2780 280° West 280 322 7,400 -1,200 Descending Aus ATC (RADAR)
03:58AM -33.9580 151.2720 280° West 279 321 7,100 -1,080 Descending FlightAware
03:58AM -33.9640 151.2330 259° West 276 318 6,800 -300 Descending FlightAware
03:58AM -33.9689 151.2025 259° West 271 312 6,900 -600 Climbing Aus ATC (RADAR)
03:59AM -33.9750 151.1920 259° West 248 285 6,500 -960 Descending FlightAware
03:59AM -33.9938 151.1589 259° West 248 285 6,300 -1,020 Descending Aus ATC (RADAR)
03:59AM -33.9950 151.1570 259° West 249 287 6,000 -960 Descending FlightAware
04:00AM -34.0140 151.1320 227° Southwest 247 284 5,800 -600 Descending FlightAware
04:00AM -34.0450 151.1140 206° Southwest 236 272 5,500 -660 Descending FlightAware
04:01AM -34.0758 151.0964 206° Southwest 240 276 5,200 -960 Descending Aus ATC (RADAR)
04:01AM -34.0700 151.1000 206° Southwest 233 268 5,100 -1,620 Descending FlightAware
04:01AM -34.1010 151.0830 204° Southwest 232 267 4,400 -1,380 Descending FlightAware
04:01AM -34.1180 151.0770 196° South 230 265 4,100 -900 Descending FlightAware
04:02AM -34.1320 151.0800 170° South 235 270 3,800 -840 Descending FlightAware
04:02AM -34.1763 151.0959 170° South 221 254 3,400 -1,020 Descending Aus ATC (RADAR)
04:02AM -34.1630 151.0900 170° South 225 259 3,300 -720 Descending FlightAware
04:02AM -34.1760 151.0960 159° South 215 247 3,200 -480 Descending FlightAware
04:03AM -34.1820 151.1020 140° Southeast 208 239 3,100 -480 Descending FlightAware
04:03AM -34.1870 151.1190 110° East 203 234 3,000 -420 Descending FlightAware
04:03AM -34.1830 151.1520 82° East 200 230 2,800 -480 Descending FlightAware
04:04AM -34.1550 151.1900 48° Northeast 181 208 2,500 -240 Descending FlightAware
04:04AM -34.1370 151.1938 48° Northeast 191 220 2,600 -480 Climbing Aus ATC (RADAR)
04:04AM -34.1360 151.1940 48° Northeast 183 211 2,300 -600 Descending FlightAware
04:05AM -34.1060 151.2000 North 182 209 2,200 -300 Descending FlightAware
04:05AM -34.0860 151.2040 North 161 185 2,000 -120 Descending FlightAware
04:06AM -34.0634 151.2064 North 168 193 2,100 -720 Climbing Aus ATC (RADAR)
04:06AM -34.0500 151.2030 North 164 189 1,500 -1,020 Descending FlightAware
04:07AM -34.0260 151.1965 North 161 185 1,300 -240 Descending Aus ATC (RADAR)
04:07AM -34.0400 151.2000 North 166 191 1,400 -1,380 Climbing FlightAware
04:07AM -34.0080 151.1920 348° North 136 157 600 -1,380 Descending FlightAware
04:07AM -33.9980 151.1890 346° North 133 153 500 -720 Descending FlightAware
04:08AM -33.9790 151.1840 348° North 133 153 100 -480 Descending FlightAware
04:08AM -33.9624 151.1803 348° North 142 163 100  Level Aus ATC (RADAR)
04:08AM -33.9630 151.1810 348° North 136 157 -3,000 Descending FlightAware
04:08AM -33.9590 151.1790 337° Northwest 140 161  Level FlightAware
04:09AM -33.9490 151.1770 351° North 46 53  Level FlightAware
04:09AM -33.9460 151.1760 345° North 21 24  Level FlightAware
04:10AM -33.9440 151.1740 320° Northwest 17 20  Level FlightAware
04:10AM -33.9430 151.1730 320° Northwest 16 18  Level FlightAware
04:10AM -33.9410 151.1730 360° North 20 23  Level FlightAware
04:11AM -33.9370 151.1720 348° North 18 21  Level FlightAware
04:14AM -33.9461 151.1772 155° Southeast  Level Estimated
04:15AM -33.9461 151.1772 121° Southeast  Level Estimated
04:15AM -33.9350 151.1680 121° Southeast  Level FlightAware